createdAt,value
2019-06-07T00:01:11.377Z,7.70
2019-06-07T00:03:39.860Z,7.60
2019-06-07T00:06:13.031Z,7.60
2019-06-07T00:08:38.371Z,7.60
2019-06-07T00:11:07.766Z,7.60
2019-06-07T00:13:37.071Z,7.60
2019-06-07T00:16:05.573Z,7.60
2019-06-07T00:18:34.220Z,7.60
2019-06-07T00:21:02.899Z,7.60
2019-06-07T00:23:31.307Z,7.60
2019-06-07T00:25:59.695Z,7.50
2019-06-07T00:28:28.100Z,7.50
2019-06-07T00:30:56.494Z,7.40
2019-06-07T00:33:25.274Z,7.40
2019-06-07T00:35:53.778Z,7.30
2019-06-07T00:38:22.215Z,7.40
2019-06-07T00:40:50.635Z,7.40
2019-06-07T00:43:25.269Z,7.40
2019-06-07T00:45:49.334Z,7.40
2019-06-07T00:48:28.793Z,7.50
2019-06-07T00:50:48.006Z,7.50
2019-06-07T00:53:26.768Z,7.50
2019-06-07T00:55:46.583Z,7.40
2019-06-07T00:58:17.174Z,7.40
2019-06-07T01:00:45.255Z,7.40
2019-06-07T01:03:14.949Z,7.30
2019-06-07T01:05:43.418Z,7.30
2019-06-07T01:08:14.884Z,7.40
2019-06-07T01:10:52.984Z,7.40
2019-06-07T01:13:14.979Z,7.40
2019-06-07T01:15:42.316Z,7.40
2019-06-07T01:18:37.360Z,7.40
2019-06-07T01:20:41.610Z,7.40
2019-06-07T01:23:51.641Z,7.50
2019-06-07T01:25:40.145Z,7.50
2019-06-07T01:28:08.547Z,7.50
2019-06-07T01:30:37.009Z,7.50
2019-06-07T01:33:05.871Z,7.40
2019-06-07T01:35:34.273Z,7.40
2019-06-07T01:38:02.670Z,7.30
2019-06-07T01:40:32.926Z,7.30
2019-06-07T01:43:01.223Z,7.30
2019-06-07T01:45:31.155Z,7.20
2019-06-07T01:47:59.708Z,7.20
2019-06-07T01:50:29.732Z,7.20
2019-06-07T01:52:58.234Z,7.30
2019-06-07T01:55:29.204Z,7.30
2019-06-07T01:57:56.771Z,7.40
2019-06-07T02:00:26.685Z,7.40
2019-06-07T02:02:55.466Z,7.50
2019-06-07T02:05:25.914Z,7.50
2019-06-07T02:07:53.975Z,7.50
2019-06-07T02:10:27.427Z,7.50
2019-06-07T02:12:52.729Z,7.60
2019-06-07T02:15:23.708Z,7.60
2019-06-07T02:17:52.482Z,7.70
2019-06-07T02:20:22.965Z,7.80
2019-06-07T02:22:51.154Z,7.80
2019-06-07T02:25:43.932Z,7.90
2019-06-07T02:27:49.745Z,8.00
2019-06-07T02:30:40.663Z,8.10
2019-06-07T02:32:48.386Z,8.10
2019-06-07T02:35:16.945Z,8.10
2019-06-07T02:37:45.327Z,8.20
2019-06-07T02:40:14.011Z,8.20
2019-06-07T02:42:43.058Z,8.30
2019-06-07T02:45:11.643Z,8.30
2019-06-07T02:47:41.525Z,8.30
2019-06-07T02:50:11.146Z,8.40
2019-06-07T02:52:41.129Z,8.40
2019-06-07T02:55:10.832Z,8.50
2019-06-07T02:57:41.907Z,8.50
2019-06-07T03:00:41.780Z,8.50
2019-06-07T03:02:45.486Z,8.50
2019-06-07T03:05:14.220Z,8.50
2019-06-07T03:07:45.218Z,8.50
2019-06-07T03:10:14.298Z,8.50
2019-06-07T03:12:44.139Z,8.50
2019-06-07T03:15:32.252Z,8.50
2019-06-07T03:17:45.144Z,8.50
2019-06-07T03:20:15.656Z,8.50
2019-06-07T03:22:44.062Z,8.50
2019-06-07T03:25:12.707Z,8.50
2019-06-07T03:27:49.047Z,8.50
2019-06-07T03:30:36.279Z,8.40
2019-06-07T03:32:47.447Z,8.40
2019-06-07T03:35:11.958Z,8.30
2019-06-07T03:37:42.844Z,8.30
2019-06-07T03:40:10.871Z,8.30
2019-06-07T03:42:40.220Z,8.30
2019-06-07T03:45:08.931Z,8.30
2019-06-07T03:47:41.832Z,8.30
2019-06-07T03:50:07.790Z,8.30
2019-06-07T03:52:39.108Z,8.20
2019-06-07T03:55:06.856Z,8.20
2019-06-07T03:58:24.883Z,8.20
2019-06-07T04:00:09.076Z,8.10
2019-06-07T04:02:41.363Z,8.10
2019-06-07T04:05:08.079Z,8.10
2019-06-07T04:07:40.244Z,8.00
2019-06-07T04:10:09.811Z,8.10
2019-06-07T04:12:41.197Z,8.10
2019-06-07T04:15:08.422Z,8.10
2019-06-07T04:17:39.569Z,8.10
2019-06-07T04:20:07.327Z,8.20
2019-06-07T04:22:39.579Z,8.20
2019-06-07T04:25:08.534Z,8.20
2019-06-07T04:27:39.295Z,8.30
2019-06-07T04:30:09.071Z,8.30
2019-06-07T04:32:40.490Z,8.30
2019-06-07T04:35:08.253Z,8.40
2019-06-07T04:37:40.783Z,8.40
2019-06-07T04:40:08.818Z,8.50
2019-06-07T04:42:41.390Z,8.50
2019-06-07T04:45:32.440Z,8.60
2019-06-07T04:47:42.617Z,8.70
2019-06-07T04:50:11.411Z,8.70
2019-06-07T04:52:42.808Z,8.80
2019-06-07T04:55:09.930Z,8.90
2019-06-07T04:57:40.418Z,9.00
2019-06-07T05:00:34.145Z,9.10
2019-06-07T05:02:40.925Z,9.20
2019-06-07T05:05:08.818Z,9.30
2019-06-07T05:07:39.969Z,9.40
2019-06-07T05:10:07.571Z,9.50
2019-06-07T05:12:39.478Z,9.50
2019-06-07T05:15:06.434Z,9.70
2019-06-07T05:17:36.885Z,9.80
2019-06-07T05:20:07.339Z,9.90
2019-06-07T05:22:40.861Z,10.00
2019-06-07T05:25:06.347Z,10.10
2019-06-07T05:27:37.911Z,10.20
2019-06-07T05:30:24.311Z,10.30
2019-06-07T05:32:43.813Z,10.40
2019-06-07T05:35:10.164Z,10.50
2019-06-07T05:37:41.154Z,10.60
2019-06-07T05:40:09.227Z,10.70
2019-06-07T05:42:42.667Z,10.80
2019-06-07T05:45:08.642Z,10.90
2019-06-07T05:47:42.750Z,11.00
2019-06-07T05:50:38.102Z,11.10
2019-06-07T05:52:41.722Z,11.20
2019-06-07T05:55:07.960Z,11.30
2019-06-07T05:57:38.222Z,11.30
2019-06-07T06:00:07.920Z,11.40
2019-06-07T06:02:56.786Z,11.50
2019-06-07T06:05:06.994Z,11.60
2019-06-07T06:07:38.717Z,11.70
2019-06-07T06:10:07.894Z,11.80
2019-06-07T06:12:40.837Z,11.90
2019-06-07T06:15:10.091Z,12.00
2019-06-07T06:17:42.654Z,12.10
2019-06-07T06:20:08.885Z,12.20
2019-06-07T06:22:40.105Z,12.40
2019-06-07T06:25:31.929Z,12.40
2019-06-07T06:28:10.534Z,12.60
2019-06-07T06:30:11.650Z,12.70
2019-06-07T06:32:42.976Z,12.80
2019-06-07T06:35:10.536Z,12.90
2019-06-07T06:37:42.524Z,13.00
2019-06-07T06:40:09.952Z,13.10
2019-06-07T06:42:39.639Z,13.30
2019-06-07T06:45:09.091Z,13.40
2019-06-07T06:47:38.286Z,13.50
2019-06-07T06:50:09.884Z,13.60
2019-06-07T06:52:42.215Z,13.80
2019-06-07T06:55:09.635Z,13.90
2019-06-07T06:57:41.454Z,14.00
2019-06-07T07:00:10.300Z,14.10
2019-06-07T07:03:27.120Z,14.30
2019-06-07T07:05:09.364Z,14.40
2019-06-07T07:07:37.846Z,14.50
2019-06-07T07:10:07.286Z,14.60
2019-06-07T07:12:35.750Z,14.70
2019-06-07T07:15:10.091Z,14.80
2019-06-07T07:17:50.886Z,14.90
2019-06-07T07:20:08.772Z,15.00
2019-06-07T07:22:37.171Z,15.10
2019-06-07T07:25:06.906Z,15.20
2019-06-07T07:27:35.314Z,15.30
2019-06-07T07:30:35.605Z,15.40
2019-06-07T07:32:36.721Z,15.50
2019-06-07T07:35:05.896Z,15.60
2019-06-07T07:37:34.305Z,15.70
2019-06-07T07:40:53.548Z,15.80
2019-06-07T07:42:32.840Z,15.90
2019-06-07T07:45:01.234Z,16.00
2019-06-07T07:47:29.630Z,16.10
2019-06-07T07:49:59.151Z,16.20
2019-06-07T07:52:27.791Z,16.20
2019-06-07T07:54:58.328Z,16.30
2019-06-07T07:57:26.422Z,16.40
2019-06-07T08:00:13.666Z,16.60
2019-06-07T08:02:25.006Z,16.60
2019-06-07T08:05:20.588Z,16.70
2019-06-07T08:07:23.569Z,16.80
2019-06-07T08:09:59.561Z,16.90
2019-06-07T08:12:22.491Z,17.00
2019-06-07T08:14:53.522Z,17.00
2019-06-07T08:17:21.014Z,17.10
2019-06-07T08:19:51.599Z,17.20
2019-06-07T08:22:19.658Z,17.20
2019-06-07T08:24:51.362Z,17.30
2019-06-07T08:27:26.282Z,17.40
2019-06-07T08:30:14.350Z,17.50
2019-06-07T08:32:18.455Z,17.60
2019-06-07T08:34:49.073Z,17.70
2019-06-07T08:37:16.979Z,17.70
2019-06-07T08:39:45.482Z,17.80
2019-06-07T08:42:21.119Z,17.90
2019-06-07T08:44:43.980Z,17.90
2019-06-07T08:47:20.661Z,18.00
2019-06-07T08:49:42.511Z,18.10
2019-06-07T08:52:12.470Z,18.20
2019-06-07T08:54:41.100Z,18.30
2019-06-07T08:57:20.667Z,18.30
2019-06-07T08:59:40.239Z,18.40
2019-06-07T09:02:22.820Z,18.50
2019-06-07T09:04:38.860Z,18.60
2019-06-07T09:07:18.901Z,18.70
2019-06-07T09:09:37.371Z,18.80
2019-06-07T09:12:10.779Z,18.90
2019-06-07T09:14:58.284Z,18.90
2019-06-07T09:17:11.827Z,19.10
2019-06-07T09:19:37.338Z,19.20
2019-06-07T09:22:10.882Z,19.30
2019-06-07T09:24:36.210Z,19.30
2019-06-07T09:27:07.667Z,19.40
2019-06-07T09:29:36.180Z,19.50
2019-06-07T09:32:10.618Z,19.60
2019-06-07T09:34:34.846Z,19.70
2019-06-07T09:37:54.790Z,19.80
2019-06-07T09:39:34.473Z,19.90
2019-06-07T09:42:08.432Z,19.90
2019-06-07T09:44:33.008Z,20.00
2019-06-07T09:47:19.930Z,20.10
2019-06-07T09:49:33.276Z,20.20
2019-06-07T09:52:06.718Z,20.30
2019-06-07T09:57:07.052Z,20.50
2019-06-07T09:59:32.342Z,20.60
2019-06-07T10:02:02.773Z,20.60
2019-06-07T10:04:31.672Z,20.70
2019-06-07T10:07:11.588Z,20.80
2019-06-07T10:12:00.531Z,21.00
2019-06-07T10:14:29.379Z,21.00
2019-06-07T10:16:58.796Z,21.10
2019-06-07T10:19:27.233Z,21.20
2019-06-07T10:21:55.707Z,21.30
2019-06-07T10:24:24.106Z,21.40
2019-06-07T10:26:52.533Z,21.40
2019-06-07T10:29:20.924Z,21.40
2019-06-07T10:31:49.464Z,21.40
2019-06-07T10:34:17.863Z,21.50
2019-06-07T10:36:46.286Z,21.60
2019-06-07T10:39:14.872Z,21.70
2019-06-07T10:41:43.291Z,21.80
2019-06-07T10:44:11.693Z,21.80
2019-06-07T10:46:40.103Z,21.90
2019-06-07T10:49:09.993Z,22.00
2019-06-07T10:51:38.757Z,22.00
2019-06-07T10:54:23.443Z,22.10
2019-06-07T10:56:37.607Z,22.20
2019-06-07T10:59:06.994Z,22.30
2019-06-07T11:01:35.463Z,22.30
2019-06-07T11:04:03.985Z,22.40
2019-06-07T11:06:32.417Z,22.50
2019-06-07T11:09:00.814Z,22.60
2019-06-07T11:11:29.269Z,22.60
2019-06-07T11:13:57.696Z,22.60
2019-06-07T11:16:26.139Z,22.70
2019-06-07T11:18:54.552Z,22.80
2019-06-07T11:21:22.960Z,22.80
2019-06-07T11:23:51.589Z,22.90
2019-06-07T11:26:19.978Z,23.00
2019-06-07T11:28:48.426Z,23.20
2019-06-07T11:31:16.875Z,23.20
2019-06-07T11:33:45.830Z,23.30
2019-06-07T11:36:15.329Z,23.40
2019-06-07T11:38:43.919Z,23.50
2019-06-07T11:41:13.507Z,23.60
2019-06-07T11:43:42.003Z,23.60
2019-06-07T11:46:10.970Z,23.70
2019-06-07T11:48:39.412Z,23.80
2019-06-07T11:51:08.572Z,23.90
2019-06-07T11:53:37.016Z,23.90
2019-06-07T11:56:05.407Z,24.00
2019-06-07T11:58:33.806Z,24.00
2019-06-07T12:01:02.299Z,24.10
2019-06-07T12:03:30.724Z,24.10
2019-06-07T12:05:59.185Z,24.20
2019-06-07T12:08:27.591Z,24.20
2019-06-07T12:10:56.002Z,24.30
2019-06-07T12:13:26.937Z,24.40
2019-06-07T12:15:54.535Z,24.40
2019-06-07T12:18:22.954Z,24.50
2019-06-07T12:20:51.332Z,24.60
2019-06-07T12:23:20.150Z,24.70
2019-06-07T12:25:48.715Z,24.80
2019-06-07T12:28:17.114Z,24.90
2019-06-07T12:30:45.584Z,25.00
2019-06-07T12:33:15.442Z,25.10
2019-06-07T12:35:43.937Z,25.20
2019-06-07T12:38:12.428Z,25.30
2019-06-07T12:40:41.243Z,25.40
2019-06-07T12:43:09.640Z,25.40
2019-06-07T12:45:44.897Z,25.50
2019-06-07T12:48:08.189Z,25.50
2019-06-07T12:50:42.992Z,25.60
2019-06-07T12:53:06.735Z,25.70
2019-06-07T12:55:35.135Z,25.80
2019-06-07T12:58:03.528Z,25.90
2019-06-07T13:00:31.959Z,26.00
2019-06-07T13:03:00.369Z,26.10
2019-06-07T13:05:28.858Z,26.20
2019-06-07T13:07:57.243Z,26.20
2019-06-07T13:10:25.682Z,26.30
2019-06-07T13:12:54.138Z,26.40
2019-06-07T13:15:24.509Z,26.50
2019-06-07T13:17:52.740Z,26.60
2019-06-07T13:20:22.716Z,26.70
2019-06-07T13:22:51.248Z,26.80
2019-06-07T13:25:23.426Z,26.90
2019-06-07T13:27:51.923Z,27.00
2019-06-07T13:30:21.108Z,27.20
2019-06-07T13:32:49.886Z,27.30
2019-06-07T13:35:20.081Z,27.40
2019-06-07T13:37:48.596Z,27.50
2019-06-07T13:40:19.710Z,27.70
2019-06-07T13:42:47.926Z,27.90
2019-06-07T13:45:18.010Z,28.00
2019-06-07T13:47:46.604Z,28.10
2019-06-07T13:50:15.764Z,28.20
2019-06-07T13:52:45.242Z,28.40
2019-06-07T13:55:14.572Z,28.50
2019-06-07T13:57:42.989Z,28.70
2019-06-07T14:00:12.018Z,28.90
2019-06-07T14:02:40.573Z,29.00
2019-06-07T14:05:09.227Z,29.30
2019-06-07T14:07:37.623Z,29.50
2019-06-07T14:10:11.647Z,29.70
2019-06-07T14:12:39.378Z,30.00
2019-06-07T14:15:08.654Z,30.30
2019-06-07T14:17:37.091Z,30.60
2019-06-07T14:20:07.583Z,30.90
2019-06-07T14:22:36.149Z,31.10
2019-06-07T14:25:09.467Z,31.40
2019-06-07T14:27:37.961Z,31.80
2019-06-07T14:30:09.090Z,32.40
2019-06-07T14:32:37.549Z,33.00
2019-06-07T14:35:06.889Z,33.60
2019-06-07T14:37:35.296Z,34.10
2019-06-07T14:40:08.736Z,34.60
2019-06-07T14:42:37.194Z,35.00
2019-06-07T14:45:09.888Z,35.30
2019-06-07T14:47:38.286Z,35.50
2019-06-07T14:50:08.598Z,35.70
2019-06-07T14:52:37.003Z,35.90
2019-06-07T14:55:07.945Z,36.10
2019-06-07T14:57:37.296Z,36.30
2019-06-07T15:00:12.091Z,36.10
2019-06-07T15:02:40.797Z,36.00
2019-06-07T15:05:09.923Z,36.00
2019-06-07T15:07:40.434Z,36.10
2019-06-07T15:10:09.211Z,36.10
2019-06-07T15:12:37.639Z,35.60
2019-06-07T15:15:07.208Z,35.20
2019-06-07T15:17:35.859Z,34.70
2019-06-07T15:20:08.732Z,34.40
2019-06-07T15:22:38.762Z,34.30
2019-06-07T15:25:08.794Z,34.20
2019-06-07T15:27:37.655Z,34.10
2019-06-07T15:30:10.289Z,33.90
2019-06-07T15:32:39.594Z,33.80
2019-06-07T15:35:09.327Z,33.60
2019-06-07T15:37:39.247Z,33.40
2019-06-07T15:40:09.696Z,33.20
2019-06-07T15:42:51.344Z,33.10
2019-06-07T15:45:10.036Z,32.80
2019-06-07T15:47:40.390Z,32.30
2019-06-07T15:50:09.849Z,31.80
2019-06-07T15:52:41.281Z,31.40
2019-06-07T15:55:10.479Z,31.00
2019-06-07T15:57:39.571Z,30.60
2019-06-07T16:00:16.666Z,30.30
2019-06-07T16:02:45.438Z,30.00
2019-06-07T16:05:16.351Z,29.60
2019-06-07T16:07:44.822Z,29.40
2019-06-07T16:10:14.655Z,29.10
2019-06-07T16:12:59.205Z,28.90
2019-06-07T16:15:14.781Z,28.90
2019-06-07T16:17:43.895Z,28.90
2019-06-07T16:20:12.973Z,29.10
2019-06-07T16:22:41.985Z,28.90
2019-06-07T16:25:11.795Z,28.60
2019-06-07T16:27:40.759Z,28.20
2019-06-07T16:30:11.447Z,27.80
2019-06-07T16:32:41.535Z,27.50
2019-06-07T16:35:10.198Z,27.20
2019-06-07T16:37:40.479Z,26.90
2019-06-07T16:40:10.807Z,26.70
2019-06-07T16:42:40.517Z,26.50
2019-06-07T16:45:11.062Z,26.30
2019-06-07T16:47:42.743Z,26.20
2019-06-07T16:50:11.273Z,26.10
2019-06-07T16:52:41.206Z,26.00
2019-06-07T16:55:10.858Z,26.00
2019-06-07T16:57:40.798Z,25.80
2019-06-07T17:00:12.768Z,25.50
2019-06-07T17:02:42.226Z,25.20
2019-06-07T17:05:11.446Z,24.90
2019-06-07T17:07:40.255Z,24.60
2019-06-07T17:10:09.757Z,24.40
2019-06-07T17:12:38.592Z,24.20
2019-06-07T17:15:11.765Z,24.00
2019-06-07T17:17:40.949Z,23.80
2019-06-07T17:20:10.170Z,23.70
2019-06-07T17:22:39.141Z,23.50
2019-06-07T17:25:08.567Z,23.20
2019-06-07T17:27:37.038Z,22.90
2019-06-07T17:30:07.839Z,22.50
2019-06-07T17:32:48.521Z,22.00
2019-06-07T17:35:07.439Z,21.60
2019-06-07T17:37:35.832Z,21.30
2019-06-07T17:40:06.159Z,21.00
2019-06-07T17:42:34.563Z,20.70
2019-06-07T17:45:04.111Z,20.40
2019-06-07T17:47:32.582Z,20.20
2019-06-07T17:50:00.982Z,20.00
2019-06-07T17:54:58.391Z,19.40
2019-06-07T17:57:26.798Z,19.20
2019-06-07T17:59:55.201Z,18.90
2019-06-07T18:02:24.179Z,18.70
2019-06-07T18:04:53.515Z,18.60
2019-06-07T18:07:24.212Z,18.50
2019-06-07T18:09:54.053Z,18.30
2019-06-07T18:12:22.438Z,18.20
2019-06-07T18:14:51.914Z,18.20
2019-06-07T18:17:33.750Z,18.00
2019-06-07T18:19:50.939Z,17.80
2019-06-07T18:22:19.355Z,17.70
2019-06-07T18:24:48.489Z,17.50
2019-06-07T18:27:16.950Z,17.40
2019-06-07T18:29:46.523Z,17.40
2019-06-07T18:32:15.042Z,17.10
2019-06-07T18:34:43.519Z,17.00
2019-06-07T18:37:11.907Z,16.90
2019-06-07T18:39:40.322Z,16.80
2019-06-07T18:42:08.713Z,16.80
2019-06-07T18:44:37.130Z,16.80
2019-06-07T18:47:05.532Z,16.70
2019-06-07T18:52:15.344Z,16.00
2019-06-07T18:54:43.779Z,16.30
2019-06-07T18:57:12.525Z,16.30
2019-06-07T18:59:41.149Z,16.20
2019-06-07T19:02:09.540Z,16.30
2019-06-07T19:04:37.946Z,16.20
2019-06-07T19:07:06.344Z,16.20
2019-06-07T19:09:34.751Z,16.30
2019-06-07T19:12:03.149Z,16.20
2019-06-07T19:14:36.989Z,16.20
2019-06-07T19:17:01.680Z,16.20
2019-06-07T19:19:30.095Z,16.20
2019-06-07T19:21:58.511Z,16.10
2019-06-07T19:24:26.907Z,16.10
2019-06-07T19:26:56.599Z,16.00
2019-06-07T19:29:25.276Z,15.90
2019-06-07T19:31:54.871Z,15.90
2019-06-07T19:34:23.451Z,15.90
2019-06-07T19:36:51.858Z,15.70
2019-06-07T19:39:20.259Z,15.70
2019-06-07T19:41:48.752Z,15.70
2019-06-07T19:44:17.148Z,15.30
2019-06-07T19:46:45.543Z,15.70
2019-06-07T19:49:14.021Z,15.70
2019-06-07T19:51:42.425Z,15.70
2019-06-07T19:54:10.842Z,15.60
2019-06-07T19:56:39.265Z,15.60
2019-06-07T19:59:07.675Z,15.50
2019-06-07T20:01:36.074Z,15.50
2019-06-07T20:04:04.605Z,15.50
2019-06-07T20:06:33.023Z,15.50
2019-06-07T20:09:02.803Z,15.50
2019-06-07T20:11:31.509Z,15.40
2019-06-07T20:14:00.778Z,15.30
2019-06-07T20:16:29.362Z,15.30
2019-06-07T20:18:58.154Z,15.30
2019-06-07T20:21:26.623Z,15.30
2019-06-07T20:23:55.206Z,15.30
2019-06-07T20:26:23.619Z,15.30
2019-06-07T20:28:52.019Z,15.20
2019-06-07T20:31:20.510Z,14.70
2019-06-07T20:33:48.943Z,15.20
2019-06-07T20:36:17.336Z,15.20
2019-06-07T20:38:46.526Z,15.10
2019-06-07T20:41:14.988Z,15.10
2019-06-07T20:43:43.382Z,15.10
2019-06-07T20:46:11.802Z,15.10
2019-06-07T20:48:40.212Z,15.10
2019-06-07T20:51:08.799Z,15.30
2019-06-07T20:53:37.304Z,15.10
2019-06-07T20:56:06.802Z,15.00
2019-06-07T20:58:35.383Z,15.00
2019-06-07T21:01:04.793Z,15.00
2019-06-07T21:03:33.366Z,14.90
2019-06-07T21:06:03.322Z,14.90
2019-06-07T21:08:31.878Z,14.80
2019-06-07T21:11:01.561Z,14.80
2019-06-07T21:13:30.151Z,14.80
2019-06-07T21:15:59.902Z,14.80
2019-06-07T21:18:28.509Z,14.80
2019-06-07T21:20:56.926Z,14.80
2019-06-07T21:23:25.413Z,14.80
2019-06-07T21:25:53.813Z,14.80
2019-06-07T21:28:22.256Z,14.80
2019-06-07T21:30:50.679Z,14.80
2019-06-07T21:33:19.095Z,14.80
2019-06-07T21:35:47.494Z,14.80
2019-06-07T21:38:15.895Z,14.90
2019-06-07T21:40:44.385Z,14.90
2019-06-07T21:43:12.892Z,14.90
2019-06-07T21:45:41.678Z,14.90
2019-06-07T21:48:11.584Z,14.90
2019-06-07T21:50:40.159Z,15.00
2019-06-07T21:53:08.630Z,15.00
2019-06-07T21:55:37.030Z,15.00
2019-06-07T21:58:05.431Z,15.00
2019-06-07T22:00:49.748Z,15.10
2019-06-07T22:03:18.155Z,15.00
2019-06-07T22:05:49.314Z,15.00
2019-06-07T22:08:16.678Z,15.00
2019-06-07T22:10:45.142Z,14.90
2019-06-07T22:13:14.244Z,14.90
2019-06-07T22:15:43.494Z,14.70
2019-06-07T22:18:12.959Z,14.50
2019-06-07T22:20:41.387Z,14.40
2019-06-07T22:23:10.666Z,14.20
2019-06-07T22:25:39.121Z,14.10
2019-06-07T22:28:08.086Z,14.00
2019-06-07T22:30:36.496Z,14.10
2019-06-07T22:33:04.900Z,13.90
2019-06-07T22:35:33.286Z,13.80
2019-06-07T22:38:01.707Z,13.80
2019-06-07T22:40:30.089Z,13.70
2019-06-07T22:42:58.763Z,13.70
2019-06-07T22:45:27.215Z,13.70
2019-06-07T22:47:55.626Z,13.60
2019-06-07T22:50:24.087Z,13.60
2019-06-07T22:52:52.496Z,13.60
2019-06-07T22:55:20.878Z,13.60
2019-06-07T22:57:53.843Z,13.50
2019-06-07T23:00:22.703Z,13.50
2019-06-07T23:02:51.106Z,13.50
2019-06-07T23:05:19.510Z,13.50
2019-06-07T23:07:48.162Z,13.50
2019-06-07T23:10:17.463Z,13.40
2019-06-07T23:12:45.962Z,13.40
2019-06-07T23:15:15.547Z,13.40
2019-06-07T23:17:44.004Z,13.30
2019-06-07T23:20:13.725Z,13.30
2019-06-07T23:22:42.247Z,13.30
2019-06-07T23:25:12.276Z,13.30
2019-06-07T23:27:40.771Z,13.30
2019-06-07T23:30:10.666Z,13.20
2019-06-07T23:32:39.308Z,13.20
2019-06-07T23:35:08.550Z,13.20
2019-06-07T23:37:36.950Z,13.10
2019-06-07T23:40:06.888Z,13.10
2019-06-07T23:42:35.352Z,13.10
2019-06-07T23:45:04.723Z,13.10
2019-06-07T23:47:33.117Z,13.10
2019-06-07T23:50:01.530Z,13.10
2019-06-07T23:52:30.198Z,13.10
2019-06-07T23:54:58.610Z,13.10
2019-06-07T23:57:27.014Z,13.10
2019-06-07T23:59:55.419Z,13.00
